Terminal Aerodrome Forecast
Issued by NWS

Home | Current Version | Previous Version | Text Only | Print | Product List | Glossary On
Versions: 1 2 3 4 5 6 7 8 9 10 11 12 13 14 15 16 17 18 19 20 21 22 23 24 25 26 27 28
000
FTUS45 KCYS 311724
TAFAIA
TAF
KAIA 311724Z 3118/0118 02008KT 1SM -SN BKN013 OVC020
     FM312200 04010KT 4SM -SN BKN009 OVC015
     FM010300 35012KT P6SM OVC020=

USA.gov is the U.S. government's official web portal to all federal, state and local government web resources and services.